sensor_id;sensor_type;location;lat;lon;timestamp;temperature;humidity
9861;DHT22;4969;52.304;4.968;2023-04-05T00:01:24;9.61;61.36
9861;DHT22;4969;52.304;4.968;2023-04-05T00:03:51;9.62;65.31
9861;DHT22;4969;52.304;4.968;2023-04-05T00:06:18;9.23;62.11
9861;DHT22;4969;52.304;4.968;2023-04-05T00:08:46;8.64;61.10
9861;DHT22;4969;52.304;4.968;2023-04-05T00:11:16;8.15;59.45
9861;DHT22;4969;52.304;4.968;2023-04-05T00:13:43;8.23;60.36
9861;DHT22;4969;52.304;4.968;2023-04-05T00:16:09;8.38;61.65
9861;DHT22;4969;52.304;4.968;2023-04-05T00:18:36;8.41;65.57
9861;DHT22;4969;52.304;4.968;2023-04-05T00:21:04;9.38;67.75
9861;DHT22;4969;52.304;4.968;2023-04-05T00:23:31;8.61;58.99
9861;DHT22;4969;52.304;4.968;2023-04-05T00:26:04;8.84;64.96
9861;DHT22;4969;52.304;4.968;2023-04-05T00:28:31;9.28;63.48
9861;DHT22;4969;52.304;4.968;2023-04-05T00:30:58;9.26;63.69
9861;DHT22;4969;52.304;4.968;2023-04-05T00:33:25;9.88;68.04
9861;DHT22;4969;52.304;4.968;2023-04-05T00:35:51;9.71;62.66
9861;DHT22;4969;52.304;4.968;2023-04-05T00:38:18;9.85;67.61
9861;DHT22;4969;52.304;4.968;2023-04-05T00:40:44;9.88;66.74
9861;DHT22;4969;52.304;4.968;2023-04-05T00:43:11;9.72;65.23
9861;DHT22;4969;52.304;4.968;2023-04-05T00:45:39;9.78;63.51
9861;DHT22;4969;52.304;4.968;2023-04-05T00:48:05;9.57;65.05
9861;DHT22;4969;52.304;4.968;2023-04-05T00:50:32;9.03;59.05
9861;DHT22;4969;52.304;4.968;2023-04-05T00:52:59;9.59;67.16
9861;DHT22;4969;52.304;4.968;2023-04-05T00:55:26;9.23;65.32
9861;DHT22;4969;52.304;4.968;2023-04-05T00:57:53;9.27;62.36
9861;DHT22;4969;52.304;4.968;2023-04-05T01:00:20;9.38;63.71
9861;DHT22;4969;52.304;4.968;2023-04-05T01:02:51;9.16;64.25
9861;DHT22;4969;52.304;4.968;2023-04-05T01:05:32;9.27;63.95
9861;DHT22;4969;52.304;4.968;2023-04-05T01:08:09;9.61;67.02
9861;DHT22;4969;52.304;4.968;2023-04-05T01:10:39;9.27;63.82
9861;DHT22;4969;52.304;4.968;2023-04-05T01:13:08;9.07;65.96
9861;DHT22;4969;52.304;4.968;2023-04-05T01:15:34;9.27;65.39
9861;DHT22;4969;52.304;4.968;2023-04-05T01:18:03;8.91;63.97
9861;DHT22;4969;52.304;4.968;2023-04-05T01:20:33;9.78;66.84
9861;DHT22;4969;52.304;4.968;2023-04-05T01:23:18;9.69;62.74
9861;DHT22;4969;52.304;4.968;2023-04-05T01:26:14;9.54;63.82
9861;DHT22;4969;52.304;4.968;2023-04-05T01:31:50;8.99;66.62
9861;DHT22;4969;52.304;4.968;2023-04-05T01:34:25;8.92;67.19
9861;DHT22;4969;52.304;4.968;2023-04-05T01:36:56;9.22;67.21
9861;DHT22;4969;52.304;4.968;2023-04-05T01:39:26;9.38;66.94
9861;DHT22;4969;52.304;4.968;2023-04-05T01:41:57;8.96;64.63
9861;DHT22;4969;52.304;4.968;2023-04-05T01:44:24;7.98;59.64
9861;DHT22;4969;52.304;4.968;2023-04-05T01:46:52;7.09;63.22
9861;DHT22;4969;52.304;4.968;2023-04-05T01:49:18;6.85;66.33
9861;DHT22;4969;52.304;4.968;2023-04-05T01:51:45;7.27;63.74
9861;DHT22;4969;52.304;4.968;2023-04-05T01:54:12;7.51;66.83
9861;DHT22;4969;52.304;4.968;2023-04-05T01:56:38;8.26;67.01
9861;DHT22;4969;52.304;4.968;2023-04-05T01:59:05;8.38;68.57
9861;DHT22;4969;52.304;4.968;2023-04-05T02:01:32;8.60;65.34
9861;DHT22;4969;52.304;4.968;2023-04-05T02:04:00;8.43;67.08
9861;DHT22;4969;52.304;4.968;2023-04-05T02:06:26;8.50;66.31
9861;DHT22;4969;52.304;4.968;2023-04-05T02:08:53;8.99;68.65
9861;DHT22;4969;52.304;4.968;2023-04-05T02:11:20;8.91;66.10
9861;DHT22;4969;52.304;4.968;2023-04-05T02:13:46;8.47;63.69
9861;DHT22;4969;52.304;4.968;2023-04-05T02:16:13;8.79;63.05
9861;DHT22;4969;52.304;4.968;2023-04-05T02:18:39;8.93;65.71
9861;DHT22;4969;52.304;4.968;2023-04-05T02:21:08;9.17;66.62
9861;DHT22;4969;52.304;4.968;2023-04-05T02:23:36;8.89;66.10
9861;DHT22;4969;52.304;4.968;2023-04-05T02:26:02;9.44;67.39
9861;DHT22;4969;52.304;4.968;2023-04-05T02:28:29;9.55;68.71
9861;DHT22;4969;52.304;4.968;2023-04-05T02:30:56;9.03;64.45
9861;DHT22;4969;52.304;4.968;2023-04-05T02:33:22;9.24;64.62
9861;DHT22;4969;52.304;4.968;2023-04-05T02:35:49;9.10;64.93
9861;DHT22;4969;52.304;4.968;2023-04-05T02:38:18;9.05;65.25
9861;DHT22;4969;52.304;4.968;2023-04-05T02:40:45;9.51;67.60
9861;DHT22;4969;52.304;4.968;2023-04-05T02:43:12;9.50;66.25
9861;DHT22;4969;52.304;4.968;2023-04-05T02:45:38;9.16;68.25
9861;DHT22;4969;52.304;4.968;2023-04-05T02:48:05;9.52;69.64
9861;DHT22;4969;52.304;4.968;2023-04-05T02:50:31;9.62;66.84
9861;DHT22;4969;52.304;4.968;2023-04-05T02:52:58;9.23;66.09
9861;DHT22;4969;52.304;4.968;2023-04-05T02:55:26;9.27;68.85
9861;DHT22;4969;52.304;4.968;2023-04-05T02:57:57;9.33;68.09
9861;DHT22;4969;52.304;4.968;2023-04-05T03:00:25;9.71;67.60
9861;DHT22;4969;52.304;4.968;2023-04-05T03:02:52;9.77;67.85
9861;DHT22;4969;52.304;4.968;2023-04-05T03:05:18;9.26;65.05
9861;DHT22;4969;52.304;4.968;2023-04-05T03:07:46;8.92;67.46
9861;DHT22;4969;52.304;4.968;2023-04-05T03:10:14;9.05;66.97
9861;DHT22;4969;52.304;4.968;2023-04-05T03:12:44;9.16;68.61
9861;DHT22;4969;52.304;4.968;2023-04-05T03:15:11;9.85;67.79
9861;DHT22;4969;52.304;4.968;2023-04-05T03:17:37;9.51;66.79
9861;DHT22;4969;52.304;4.968;2023-04-05T03:20:05;9.57;68.31
9861;DHT22;4969;52.304;4.968;2023-04-05T03:22:33;9.37;66.92
9861;DHT22;4969;52.304;4.968;2023-04-05T03:25:00;9.06;65.00
9861;DHT22;4969;52.304;4.968;2023-04-05T03:27:27;9.06;66.25
9861;DHT22;4969;52.304;4.968;2023-04-05T03:29:55;9.05;67.90
9861;DHT22;4969;52.304;4.968;2023-04-05T03:32:22;8.51;63.43
9861;DHT22;4969;52.304;4.968;2023-04-05T03:34:48;8.75;65.99
9861;DHT22;4969;52.304;4.968;2023-04-05T03:37:15;8.76;66.60
9861;DHT22;4969;52.304;4.968;2023-04-05T03:39:42;9.12;68.41
9861;DHT22;4969;52.304;4.968;2023-04-05T03:42:08;9.54;68.47
9861;DHT22;4969;52.304;4.968;2023-04-05T03:44:35;9.45;65.82
9861;DHT22;4969;52.304;4.968;2023-04-05T03:47:03;9.54;68.46
9861;DHT22;4969;52.304;4.968;2023-04-05T03:49:29;9.65;67.49
9861;DHT22;4969;52.304;4.968;2023-04-05T03:51:56;9.62;66.79
9861;DHT22;4969;52.304;4.968;2023-04-05T03:54:22;9.37;66.94
9861;DHT22;4969;52.304;4.968;2023-04-05T03:56:49;9.24;67.11
9861;DHT22;4969;52.304;4.968;2023-04-05T03:59:16;9.06;66.72
9861;DHT22;4969;52.304;4.968;2023-04-05T04:01:42;9.48;68.72
9861;DHT22;4969;52.304;4.968;2023-04-05T04:04:11;9.31;67.23
9861;DHT22;4969;52.304;4.968;2023-04-05T04:06:38;9.09;66.47
9861;DHT22;4969;52.304;4.968;2023-04-05T04:09:04;9.45;68.48
9861;DHT22;4969;52.304;4.968;2023-04-05T04:11:31;9.23;66.15
9861;DHT22;4969;52.304;4.968;2023-04-05T04:13:57;8.92;65.33
9861;DHT22;4969;52.304;4.968;2023-04-05T04:16:24;8.67;65.24
9861;DHT22;4969;52.304;4.968;2023-04-05T04:18:50;8.30;64.94
9861;DHT22;4969;52.304;4.968;2023-04-05T04:21:19;8.50;67.30
9861;DHT22;4969;52.304;4.968;2023-04-05T04:23:49;8.72;67.71
9861;DHT22;4969;52.304;4.968;2023-04-05T04:26:16;8.73;66.33
9861;DHT22;4969;52.304;4.968;2023-04-05T04:28:53;9.30;71.01
9861;DHT22;4969;52.304;4.968;2023-04-05T04:31:19;9.47;68.98
9861;DHT22;4969;52.304;4.968;2023-04-05T04:33:48;9.38;69.14
9861;DHT22;4969;52.304;4.968;2023-04-05T04:36:15;7.88;57.09
9861;DHT22;4969;52.304;4.968;2023-04-05T04:38:43;6.25;60.42
9861;DHT22;4969;52.304;4.968;2023-04-05T04:41:10;5.04;64.26
9861;DHT22;4969;52.304;4.968;2023-04-05T04:43:37;4.23;67.13
9861;DHT22;4969;52.304;4.968;2023-04-05T04:46:08;3.86;69.25
9861;DHT22;4969;52.304;4.968;2023-04-05T04:48:39;3.57;70.80
9861;DHT22;4969;52.304;4.968;2023-04-05T04:51:06;3.29;70.98
9861;DHT22;4969;52.304;4.968;2023-04-05T04:53:33;3.25;72.00
9861;DHT22;4969;52.304;4.968;2023-04-05T04:56:05;3.13;71.95
9861;DHT22;4969;52.304;4.968;2023-04-05T04:58:31;3.12;71.88
9861;DHT22;4969;52.304;4.968;2023-04-05T05:00:58;3.02;72.30
9861;DHT22;4969;52.304;4.968;2023-04-05T05:03:25;3.26;71.88
9861;DHT22;4969;52.304;4.968;2023-04-05T05:05:52;3.02;72.93
9861;DHT22;4969;52.304;4.968;2023-04-05T05:08:18;2.85;72.43
9861;DHT22;4969;52.304;4.968;2023-04-05T05:10:45;2.64;73.15
9861;DHT22;4969;52.304;4.968;2023-04-05T05:13:13;2.57;73.55
9861;DHT22;4969;52.304;4.968;2023-04-05T05:15:39;2.50;73.75
9861;DHT22;4969;52.304;4.968;2023-04-05T05:18:06;2.52;74.44
9861;DHT22;4969;52.304;4.968;2023-04-05T05:20:33;2.55;74.33
9861;DHT22;4969;52.304;4.968;2023-04-05T05:22:59;2.59;74.17
9861;DHT22;4969;52.304;4.968;2023-04-05T05:25:28;2.53;74.21
9861;DHT22;4969;52.304;4.968;2023-04-05T05:27:54;2.35;73.88
9861;DHT22;4969;52.304;4.968;2023-04-05T05:30:22;2.21;74.51
9861;DHT22;4969;52.304;4.968;2023-04-05T05:32:49;2.11;74.71
9861;DHT22;4969;52.304;4.968;2023-04-05T05:35:17;2.17;75.26
9861;DHT22;4969;52.304;4.968;2023-04-05T05:37:43;2.19;75.61
9861;DHT22;4969;52.304;4.968;2023-04-05T05:40:10;2.12;75.21
9861;DHT22;4969;52.304;4.968;2023-04-05T05:42:37;2.08;76.04
9861;DHT22;4969;52.304;4.968;2023-04-05T05:45:05;2.12;76.19
9861;DHT22;4969;52.304;4.968;2023-04-05T05:47:33;2.07;76.02
9861;DHT22;4969;52.304;4.968;2023-04-05T05:50:00;2.24;76.47
9861;DHT22;4969;52.304;4.968;2023-04-05T05:52:27;2.34;76.18
9861;DHT22;4969;52.304;4.968;2023-04-05T05:54:54;2.38;76.13
9861;DHT22;4969;52.304;4.968;2023-04-05T05:57:20;2.46;75.71
9861;DHT22;4969;52.304;4.968;2023-04-05T05:59:47;2.35;75.38
9861;DHT22;4969;52.304;4.968;2023-04-05T06:02:14;2.45;75.70
9861;DHT22;4969;52.304;4.968;2023-04-05T06:04:42;2.59;75.85
9861;DHT22;4969;52.304;4.968;2023-04-05T06:07:09;2.70;75.70
9861;DHT22;4969;52.304;4.968;2023-04-05T06:09:36;2.77;75.46
9861;DHT22;4969;52.304;4.968;2023-04-05T06:12:03;2.90;75.57
9861;DHT22;4969;52.304;4.968;2023-04-05T06:14:29;3.00;75.00
9861;DHT22;4969;52.304;4.968;2023-04-05T06:16:56;3.08;75.06
9861;DHT22;4969;52.304;4.968;2023-04-05T06:19:23;3.13;74.64
9861;DHT22;4969;52.304;4.968;2023-04-05T06:21:51;3.16;74.54
9861;DHT22;4969;52.304;4.968;2023-04-05T06:24:17;3.31;74.25
9861;DHT22;4969;52.304;4.968;2023-04-05T06:26:44;3.29;73.96
9861;DHT22;4969;52.304;4.968;2023-04-05T06:29:10;3.31;73.47
9861;DHT22;4969;52.304;4.968;2023-04-05T06:31:37;3.40;73.15
9861;DHT22;4969;52.304;4.968;2023-04-05T06:34:05;3.46;72.57
9861;DHT22;4969;52.304;4.968;2023-04-05T06:36:32;3.55;72.30
9861;DHT22;4969;52.304;4.968;2023-04-05T06:39:00;3.59;72.41
9861;DHT22;4969;52.304;4.968;2023-04-05T06:41:27;3.64;71.90
9861;DHT22;4969;52.304;4.968;2023-04-05T06:43:53;3.74;71.89
9861;DHT22;4969;52.304;4.968;2023-04-05T06:46:20;3.83;71.61
9861;DHT22;4969;52.304;4.968;2023-04-05T06:48:46;3.91;71.17
9861;DHT22;4969;52.304;4.968;2023-04-05T06:51:14;4.02;70.20
9861;DHT22;4969;52.304;4.968;2023-04-05T06:53:41;4.08;69.40
9861;DHT22;4969;52.304;4.968;2023-04-05T06:56:09;4.12;68.80
9861;DHT22;4969;52.304;4.968;2023-04-05T06:58:36;4.21;68.50
9861;DHT22;4969;52.304;4.968;2023-04-05T07:01:03;4.32;67.64
9861;DHT22;4969;52.304;4.968;2023-04-05T07:03:29;4.61;69.96
9861;DHT22;4969;52.304;4.968;2023-04-05T07:05:58;4.67;66.77
9861;DHT22;4969;52.304;4.968;2023-04-05T07:08:25;4.66;66.38
9861;DHT22;4969;52.304;4.968;2023-04-05T07:10:52;5.18;71.30
9861;DHT22;4969;52.304;4.968;2023-04-05T07:13:21;6.43;71.48
9861;DHT22;4969;52.304;4.968;2023-04-05T07:15:48;5.98;69.32
9861;DHT22;4969;52.304;4.968;2023-04-05T07:18:15;5.71;62.92
9861;DHT22;4969;52.304;4.968;2023-04-05T07:20:45;5.37;64.90
9861;DHT22;4969;52.304;4.968;2023-04-05T07:23:12;5.27;63.98
9861;DHT22;4969;52.304;4.968;2023-04-05T07:25:38;6.12;64.32
9861;DHT22;4969;52.304;4.968;2023-04-05T07:28:05;6.26;67.56
9861;DHT22;4969;52.304;4.968;2023-04-05T07:30:33;7.69;69.60
9861;DHT22;4969;52.304;4.968;2023-04-05T07:33:01;7.43;63.67
9861;DHT22;4969;52.304;4.968;2023-04-05T07:35:27;7.18;66.90
9861;DHT22;4969;52.304;4.968;2023-04-05T07:37:54;6.65;60.14
9861;DHT22;4969;52.304;4.968;2023-04-05T07:40:21;6.20;62.52
9861;DHT22;4969;52.304;4.968;2023-04-05T07:42:48;6.88;65.62
9861;DHT22;4969;52.304;4.968;2023-04-05T07:45:14;6.83;61.75
9861;DHT22;4969;52.304;4.968;2023-04-05T07:47:42;6.30;61.05
9861;DHT22;4969;52.304;4.968;2023-04-05T07:50:09;6.12;62.18
9861;DHT22;4969;52.304;4.968;2023-04-05T07:52:39;6.60;65.92
9861;DHT22;4969;52.304;4.968;2023-04-05T07:55:07;8.15;76.03
9861;DHT22;4969;52.304;4.968;2023-04-05T07:57:33;7.54;59.50
9861;DHT22;4969;52.304;4.968;2023-04-05T08:00:01;6.91;60.06
9861;DHT22;4969;52.304;4.968;2023-04-05T08:02:28;6.68;59.44
9861;DHT22;4969;52.304;4.968;2023-04-05T08:04:56;7.03;60.88
9861;DHT22;4969;52.304;4.968;2023-04-05T08:07:23;6.96;59.42
9861;DHT22;4969;52.304;4.968;2023-04-05T08:09:50;8.01;72.45
9861;DHT22;4969;52.304;4.968;2023-04-05T08:12:17;8.54;62.88
9861;DHT22;4969;52.304;4.968;2023-04-05T08:14:44;8.05;58.18
9861;DHT22;4969;52.304;4.968;2023-04-05T08:17:10;8.62;61.62
9861;DHT22;4969;52.304;4.968;2023-04-05T08:19:38;8.62;58.90
9861;DHT22;4969;52.304;4.968;2023-04-05T08:22:06;9.31;63.64
9861;DHT22;4969;52.304;4.968;2023-04-05T08:24:33;8.26;55.85
9861;DHT22;4969;52.304;4.968;2023-04-05T08:27:00;7.95;57.05
9861;DHT22;4969;52.304;4.968;2023-04-05T08:29:26;8.12;57.98
9861;DHT22;4969;52.304;4.968;2023-04-05T08:31:55;8.84;64.19
9861;DHT22;4969;52.304;4.968;2023-04-05T08:34:22;8.37;55.88
9861;DHT22;4969;52.304;4.968;2023-04-05T08:36:49;8.72;65.13
9861;DHT22;4969;52.304;4.968;2023-04-05T08:39:16;9.51;66.35
9861;DHT22;4969;52.304;4.968;2023-04-05T08:41:51;9.58;54.89
9861;DHT22;4969;52.304;4.968;2023-04-05T08:44:21;9.07;61.34
9861;DHT22;4969;52.304;4.968;2023-04-05T08:46:49;8.81;55.14
9861;DHT22;4969;52.304;4.968;2023-04-05T08:49:15;8.64;55.63
9861;DHT22;4969;52.304;4.968;2023-04-05T08:51:42;8.93;54.52
9861;DHT22;4969;52.304;4.968;2023-04-05T08:54:08;11.06;66.49
9861;DHT22;4969;52.304;4.968;2023-04-05T08:56:38;12.06;65.32
9861;DHT22;4969;52.304;4.968;2023-04-05T08:59:06;11.27;48.60
9861;DHT22;4969;52.304;4.968;2023-04-05T09:01:35;9.79;48.75
9861;DHT22;4969;52.304;4.968;2023-04-05T09:04:05;10.26;58.55
9861;DHT22;4969;52.304;4.968;2023-04-05T09:06:32;11.14;58.70
9861;DHT22;4969;52.304;4.968;2023-04-05T09:09:05;9.89;46.13
9861;DHT22;4969;52.304;4.968;2023-04-05T09:11:32;10.49;61.76
9861;DHT22;4969;52.304;4.968;2023-04-05T09:14:01;11.30;68.46
9861;DHT22;4969;52.304;4.968;2023-04-05T09:16:28;13.35;50.89
9861;DHT22;4969;52.304;4.968;2023-04-05T09:18:55;12.48;60.08
9861;DHT22;4969;52.304;4.968;2023-04-05T09:21:21;11.02;45.93
9861;DHT22;4969;52.304;4.968;2023-04-05T09:23:52;13.02;61.37
9861;DHT22;4969;52.304;4.968;2023-04-05T09:26:21;12.09;50.03
9861;DHT22;4969;52.304;4.968;2023-04-05T09:28:48;12.76;57.39
9861;DHT22;4969;52.304;4.968;2023-04-05T09:31:32;13.50;42.60
9861;DHT22;4969;52.304;4.968;2023-04-05T09:34:00;11.96;57.68
9861;DHT22;4969;52.304;4.968;2023-04-05T09:36:27;12.38;53.42
9861;DHT22;4969;52.304;4.968;2023-04-05T09:39:04;12.47;46.15
9861;DHT22;4969;52.304;4.968;2023-04-05T09:41:31;12.50;42.73
9861;DHT22;4969;52.304;4.968;2023-04-05T09:43:58;13.13;60.57
9861;DHT22;4969;52.304;4.968;2023-04-05T09:46:29;13.19;56.20
9861;DHT22;4969;52.304;4.968;2023-04-05T09:48:57;14.10;58.22
9861;DHT22;4969;52.304;4.968;2023-04-05T09:51:31;12.93;51.06
9861;DHT22;4969;52.304;4.968;2023-04-05T09:54:00;13.17;56.08
9861;DHT22;4969;52.304;4.968;2023-04-05T09:56:28;13.16;44.28
9861;DHT22;4969;52.304;4.968;2023-04-05T09:58:58;12.09;41.39
9861;DHT22;4969;52.304;4.968;2023-04-05T10:01:27;12.06;42.35
9861;DHT22;4969;52.304;4.968;2023-04-05T10:03:56;13.27;44.86
9861;DHT22;4969;52.304;4.968;2023-04-05T10:06:33;15.07;55.91
9861;DHT22;4969;52.304;4.968;2023-04-05T10:09:01;15.04;53.71
9861;DHT22;4969;52.304;4.968;2023-04-05T10:11:28;15.40;56.28
9861;DHT22;4969;52.304;4.968;2023-04-05T10:13:55;15.33;49.31
9861;DHT22;4969;52.304;4.968;2023-04-05T10:16:25;15.58;52.27
9861;DHT22;4969;52.304;4.968;2023-04-05T10:18:54;15.78;44.23
9861;DHT22;4969;52.304;4.968;2023-04-05T10:21:22;16.33;54.14
9861;DHT22;4969;52.304;4.968;2023-04-05T10:23:54;15.06;34.25
9861;DHT22;4969;52.304;4.968;2023-04-05T10:26:30;14.38;40.95
9861;DHT22;4969;52.304;4.968;2023-04-05T10:29:11;13.40;46.21
9861;DHT22;4969;52.304;4.968;2023-04-05T10:31:49;11.89;40.66
9861;DHT22;4969;52.304;4.968;2023-04-05T10:34:23;12.86;47.45
9861;DHT22;4969;52.304;4.968;2023-04-05T10:36:56;14.37;59.34
9861;DHT22;4969;52.304;4.968;2023-04-05T10:39:27;15.65;46.41
9861;DHT22;4969;52.304;4.968;2023-04-05T10:41:59;15.11;43.33
9861;DHT22;4969;52.304;4.968;2023-04-05T10:44:29;14.78;56.96
9861;DHT22;4969;52.304;4.968;2023-04-05T10:46:56;13.86;43.77
9861;DHT22;4969;52.304;4.968;2023-04-05T10:49:31;12.72;46.12
9861;DHT22;4969;52.304;4.968;2023-04-05T10:51:59;14.30;37.93
9861;DHT22;4969;52.304;4.968;2023-04-05T10:54:28;15.33;56.48
9861;DHT22;4969;52.304;4.968;2023-04-05T10:56:58;15.92;49.54
9861;DHT22;4969;52.304;4.968;2023-04-05T10:59:26;14.45;39.97
9861;DHT22;4969;52.304;4.968;2023-04-05T11:01:53;14.26;46.09
9861;DHT22;4969;52.304;4.968;2023-04-05T11:04:20;14.44;52.64
9861;DHT22;4969;52.304;4.968;2023-04-05T11:06:47;15.09;45.60
9861;DHT22;4969;52.304;4.968;2023-04-05T11:09:35;15.38;47.73
9861;DHT22;4969;52.304;4.968;2023-04-05T11:12:01;15.57;41.15
9861;DHT22;4969;52.304;4.968;2023-04-05T11:14:35;14.99;53.89
9861;DHT22;4969;52.304;4.968;2023-04-05T11:17:03;14.38;45.07
9861;DHT22;4969;52.304;4.968;2023-04-05T11:19:49;13.72;47.41
9861;DHT22;4969;52.304;4.968;2023-04-05T11:22:24;14.06;36.33
9861;DHT22;4969;52.304;4.968;2023-04-05T11:24:54;13.40;35.64
9861;DHT22;4969;52.304;4.968;2023-04-05T11:27:24;13.85;55.87
9861;DHT22;4969;52.304;4.968;2023-04-05T11:29:52;14.90;50.79
9861;DHT22;4969;52.304;4.968;2023-04-05T11:32:19;14.61;50.36
9861;DHT22;4969;52.304;4.968;2023-04-05T11:34:57;15.10;50.46
9861;DHT22;4969;52.304;4.968;2023-04-05T11:37:52;15.04;54.99
9861;DHT22;4969;52.304;4.968;2023-04-05T11:40:25;15.20;54.80
9861;DHT22;4969;52.304;4.968;2023-04-05T11:43:00;14.61;35.26
9861;DHT22;4969;52.304;4.968;2023-04-05T11:45:29;13.95;38.23
9861;DHT22;4969;52.304;4.968;2023-04-05T11:47:56;14.79;54.16
9861;DHT22;4969;52.304;4.968;2023-04-05T11:50:22;14.55;49.57
9861;DHT22;4969;52.304;4.968;2023-04-05T11:53:11;15.07;52.10
9861;DHT22;4969;52.304;4.968;2023-04-05T11:55:40;15.83;35.75
9861;DHT22;4969;52.304;4.968;2023-04-05T11:58:11;14.27;36.84
9861;DHT22;4969;52.304;4.968;2023-04-05T12:00:39;13.50;39.17
9861;DHT22;4969;52.304;4.968;2023-04-05T12:03:06;12.76;38.94
9861;DHT22;4969;52.304;4.968;2023-04-05T12:05:48;14.54;55.82
9861;DHT22;4969;52.304;4.968;2023-04-05T12:08:15;15.53;50.25
9861;DHT22;4969;52.304;4.968;2023-04-05T12:10:44;14.60;45.55
9861;DHT22;4969;52.304;4.968;2023-04-05T12:13:11;15.13;42.22
9861;DHT22;4969;52.304;4.968;2023-04-05T12:15:38;14.44;39.02
9861;DHT22;4969;52.304;4.968;2023-04-05T12:18:11;14.44;37.82
9861;DHT22;4969;52.304;4.968;2023-04-05T12:20:38;13.65;39.04
9861;DHT22;4969;52.304;4.968;2023-04-05T12:23:05;12.89;50.79
9861;DHT22;4969;52.304;4.968;2023-04-05T12:25:32;12.91;43.68
9861;DHT22;4969;52.304;4.968;2023-04-05T12:28:05;13.90;41.54
9861;DHT22;4969;52.304;4.968;2023-04-05T12:30:33;13.00;45.12
9861;DHT22;4969;52.304;4.968;2023-04-05T12:33:06;13.61;56.21
9861;DHT22;4969;52.304;4.968;2023-04-05T12:35:33;15.03;53.96
9861;DHT22;4969;52.304;4.968;2023-04-05T12:38:00;15.45;50.83
9861;DHT22;4969;52.304;4.968;2023-04-05T12:40:27;14.02;42.76
9861;DHT22;4969;52.304;4.968;2023-04-05T12:43:00;13.69;38.17
9861;DHT22;4969;52.304;4.968;2023-04-05T12:45:28;13.88;55.69
9861;DHT22;4969;52.304;4.968;2023-04-05T12:47:58;13.22;34.66
9861;DHT22;4969;52.304;4.968;2023-04-05T12:50:26;12.48;36.60
9861;DHT22;4969;52.304;4.968;2023-04-05T12:52:55;12.83;49.01
9861;DHT22;4969;52.304;4.968;2023-04-05T12:55:22;13.31;35.62
9861;DHT22;4969;52.304;4.968;2023-04-05T12:57:50;12.75;44.27
9861;DHT22;4969;52.304;4.968;2023-04-05T13:00:18;12.54;36.44
9861;DHT22;4969;52.304;4.968;2023-04-05T13:02:50;12.67;36.57
9861;DHT22;4969;52.304;4.968;2023-04-05T13:05:20;12.65;55.64
9861;DHT22;4969;52.304;4.968;2023-04-05T13:07:47;12.80;41.32
9861;DHT22;4969;52.304;4.968;2023-04-05T13:10:15;13.58;52.30
9861;DHT22;4969;52.304;4.968;2023-04-05T13:12:41;13.55;37.35
9861;DHT22;4969;52.304;4.968;2023-04-05T13:15:08;14.50;36.93
9861;DHT22;4969;52.304;4.968;2023-04-05T13:17:35;13.50;51.41
9861;DHT22;4969;52.304;4.968;2023-04-05T13:20:04;14.31;37.34
9861;DHT22;4969;52.304;4.968;2023-04-05T13:22:31;15.81;53.88
9861;DHT22;4969;52.304;4.968;2023-04-05T13:24:57;17.23;42.80
9861;DHT22;4969;52.304;4.968;2023-04-05T13:27:24;16.71;48.84
9861;DHT22;4969;52.304;4.968;2023-04-05T13:29:50;16.59;48.40
9861;DHT22;4969;52.304;4.968;2023-04-05T13:32:17;15.33;34.97
9861;DHT22;4969;52.304;4.968;2023-04-05T13:34:43;14.18;35.20
9861;DHT22;4969;52.304;4.968;2023-04-05T13:37:11;13.41;36.13
9861;DHT22;4969;52.304;4.968;2023-04-05T13:39:38;13.75;48.73
9861;DHT22;4969;52.304;4.968;2023-04-05T13:42:05;14.42;34.56
9861;DHT22;4969;52.304;4.968;2023-04-05T13:44:31;13.27;34.95
9861;DHT22;4969;52.304;4.968;2023-04-05T13:46:58;14.45;56.01
9861;DHT22;4969;52.304;4.968;2023-04-05T13:49:25;14.61;46.38
9861;DHT22;4969;52.304;4.968;2023-04-05T13:51:51;14.24;35.44
9861;DHT22;4969;52.304;4.968;2023-04-05T13:54:19;14.60;39.92
9861;DHT22;4969;52.304;4.968;2023-04-05T13:56:46;14.79;47.91
9861;DHT22;4969;52.304;4.968;2023-04-05T13:59:12;14.02;33.67
9861;DHT22;4969;52.304;4.968;2023-04-05T14:01:41;14.27;42.90
9861;DHT22;4969;52.304;4.968;2023-04-05T14:04:08;14.93;47.84
9861;DHT22;4969;52.304;4.968;2023-04-05T14:06:34;15.21;33.99
9861;DHT22;4969;52.304;4.968;2023-04-05T14:09:01;14.58;38.14
9861;DHT22;4969;52.304;4.968;2023-04-05T14:11:29;15.48;38.10
9861;DHT22;4969;52.304;4.968;2023-04-05T14:13:55;16.61;53.19
9861;DHT22;4969;52.304;4.968;2023-04-05T14:16:22;16.89;50.29
9861;DHT22;4969;52.304;4.968;2023-04-05T14:18:49;15.85;38.04
9861;DHT22;4969;52.304;4.968;2023-04-05T14:21:15;16.45;52.11
9861;DHT22;4969;52.304;4.968;2023-04-05T14:23:42;16.08;38.42
9861;DHT22;4969;52.304;4.968;2023-04-05T14:26:09;14.79;33.67
9861;DHT22;4969;52.304;4.968;2023-04-05T14:28:37;15.97;52.12
9861;DHT22;4969;52.304;4.968;2023-04-05T14:31:03;16.09;44.15
9861;DHT22;4969;52.304;4.968;2023-04-05T14:33:30;15.28;43.97
9861;DHT22;4969;52.304;4.968;2023-04-05T14:35:56;16.54;50.54
9861;DHT22;4969;52.304;4.968;2023-04-05T14:38:24;16.76;45.10
9861;DHT22;4969;52.304;4.968;2023-04-05T14:40:50;16.88;47.41
9861;DHT22;4969;52.304;4.968;2023-04-05T14:43:17;16.48;34.54
9861;DHT22;4969;52.304;4.968;2023-04-05T14:45:45;16.59;47.50
9861;DHT22;4969;52.304;4.968;2023-04-05T14:48:12;16.59;38.36
9861;DHT22;4969;52.304;4.968;2023-04-05T14:50:38;15.26;33.05
9861;DHT22;4969;52.304;4.968;2023-04-05T14:53:05;16.54;51.68
9861;DHT22;4969;52.304;4.968;2023-04-05T14:55:32;17.20;47.34
9861;DHT22;4969;52.304;4.968;2023-04-05T14:57:59;16.30;38.96
9861;DHT22;4969;52.304;4.968;2023-04-05T15:00:25;15.31;34.77
9861;DHT22;4969;52.304;4.968;2023-04-05T15:02:53;14.17;34.41
9861;DHT22;4969;52.304;4.968;2023-04-05T15:05:20;13.74;35.38
9861;DHT22;4969;52.304;4.968;2023-04-05T15:07:47;13.77;39.64
9861;DHT22;4969;52.304;4.968;2023-04-05T15:10:13;13.34;34.91
9861;DHT22;4969;52.304;4.968;2023-04-05T15:12:42;13.62;35.07
9861;DHT22;4969;52.304;4.968;2023-04-05T15:15:09;13.40;35.48
9861;DHT22;4969;52.304;4.968;2023-04-05T15:17:36;14.47;48.96
9861;DHT22;4969;52.304;4.968;2023-04-05T15:20:05;14.89;39.79
9861;DHT22;4969;52.304;4.968;2023-04-05T15:22:32;14.47;34.68
9861;DHT22;4969;52.304;4.968;2023-04-05T15:25:00;15.33;55.19
9861;DHT22;4969;52.304;4.968;2023-04-05T15:27:26;16.65;46.89
9861;DHT22;4969;52.304;4.968;2023-04-05T15:29:53;16.86;45.61
9861;DHT22;4969;52.304;4.968;2023-04-05T15:32:20;15.81;34.70
9861;DHT22;4969;52.304;4.968;2023-04-05T15:34:46;14.37;42.75
9861;DHT22;4969;52.304;4.968;2023-04-05T15:37:14;14.33;43.72
9861;DHT22;4969;52.304;4.968;2023-04-05T15:39:41;14.68;47.45
9861;DHT22;4969;52.304;4.968;2023-04-05T15:42:07;14.45;37.04
9861;DHT22;4969;52.304;4.968;2023-04-05T15:44:34;14.09;49.79
9861;DHT22;4969;52.304;4.968;2023-04-05T15:47:01;13.66;37.99
9861;DHT22;4969;52.304;4.968;2023-04-05T15:49:28;14.28;36.79
9861;DHT22;4969;52.304;4.968;2023-04-05T15:51:55;14.28;37.48
9861;DHT22;4969;52.304;4.968;2023-04-05T15:54:25;14.54;37.29
9861;DHT22;4969;52.304;4.968;2023-04-05T15:56:51;14.16;35.65
9861;DHT22;4969;52.304;4.968;2023-04-05T15:59:18;13.74;35.85
9861;DHT22;4969;52.304;4.968;2023-04-05T16:01:45;14.88;49.00
9861;DHT22;4969;52.304;4.968;2023-04-05T16:04:12;14.90;37.73
9861;DHT22;4969;52.304;4.968;2023-04-05T16:06:38;14.81;37.71
9861;DHT22;4969;52.304;4.968;2023-04-05T16:09:05;14.12;35.00
9861;DHT22;4969;52.304;4.968;2023-04-05T16:11:33;16.00;53.92
9861;DHT22;4969;52.304;4.968;2023-04-05T16:14:00;16.00;40.01
9861;DHT22;4969;52.304;4.968;2023-04-05T16:16:26;15.57;34.43
9861;DHT22;4969;52.304;4.968;2023-04-05T16:18:53;15.33;34.30